sensor_id;sensor_type;location;lat;lon;timestamp;temperature;humidity
75685;HTU21D;64298;46.050;38.164;2022-12-20T00:01:16;-1.67;74.37
75685;HTU21D;64298;46.050;38.164;2022-12-20T00:03:42;-1.69;74.47
75685;HTU21D;64298;46.050;38.164;2022-12-20T00:06:10;-1.71;74.54
75685;HTU21D;64298;46.050;38.164;2022-12-20T00:08:37;-1.75;74.56
75685;HTU21D;64298;46.050;38.164;2022-12-20T00:11:05;-1.77;74.61
75685;HTU21D;64298;46.050;38.164;2022-12-20T00:13:32;-1.79;74.65
75685;HTU21D;64298;46.050;38.164;2022-12-20T00:16:16;-1.80;74.71
75685;HTU21D;64298;46.050;38.164;2022-12-20T00:18:43;-1.82;74.71
75685;HTU21D;64298;46.050;38.164;2022-12-20T00:21:11;-1.84;74.74
75685;HTU21D;64298;46.050;38.164;2022-12-20T00:23:38;-1.88;74.70
75685;HTU21D;64298;46.050;38.164;2022-12-20T00:26:06;-1.90;74.69
75685;HTU21D;64298;46.050;38.164;2022-12-20T00:28:52;-1.93;74.68
75685;HTU21D;64298;46.050;38.164;2022-12-20T00:31:20;-1.97;74.76
75685;HTU21D;64298;46.050;38.164;2022-12-20T00:33:47;-1.98;74.79
75685;HTU21D;64298;46.050;38.164;2022-12-20T00:36:14;-2.02;74.89
75685;HTU21D;64298;46.050;38.164;2022-12-20T00:38:40;-2.06;74.97
75685;HTU21D;64298;46.050;38.164;2022-12-20T00:41:17;-2.07;75.01
75685;HTU21D;64298;46.050;38.164;2022-12-20T00:43:45;-2.08;75.01
75685;HTU21D;64298;46.050;38.164;2022-12-20T00:46:13;-2.08;75.01
75685;HTU21D;64298;46.050;38.164;2022-12-20T00:48:39;-2.08;74.96
75685;HTU21D;64298;46.050;38.164;2022-12-20T00:51:10;-2.09;74.99
75685;HTU21D;64298;46.050;38.164;2022-12-20T00:53:37;-2.10;74.94
75685;HTU21D;64298;46.050;38.164;2022-12-20T00:56:05;-2.09;74.95
75685;HTU21D;64298;46.050;38.164;2022-12-20T00:58:33;-2.12;74.89
75685;HTU21D;64298;46.050;38.164;2022-12-20T01:01:00;-2.12;74.96
75685;HTU21D;64298;46.050;38.164;2022-12-20T01:03:26;-2.15;75.01
75685;HTU21D;64298;46.050;38.164;2022-12-20T01:05:55;-2.17;75.01
75685;HTU21D;64298;46.050;38.164;2022-12-20T01:08:22;-2.18;75.06
75685;HTU21D;64298;46.050;38.164;2022-12-20T01:11:16;-2.19;75.11
75685;HTU21D;64298;46.050;38.164;2022-12-20T01:13:45;-2.19;75.12
75685;HTU21D;64298;46.050;38.164;2022-12-20T01:16:18;-2.21;75.14
75685;HTU21D;64298;46.050;38.164;2022-12-20T01:18:45;-2.26;75.20
75685;HTU21D;64298;46.050;38.164;2022-12-20T01:21:13;-2.26;75.34
75685;HTU21D;64298;46.050;38.164;2022-12-20T01:23:40;-2.28;75.38
75685;HTU21D;64298;46.050;38.164;2022-12-20T01:26:08;-2.30;75.41
75685;HTU21D;64298;46.050;38.164;2022-12-20T01:28:36;-2.33;75.50
75685;HTU21D;64298;46.050;38.164;2022-12-20T01:31:11;-2.34;75.57
75685;HTU21D;64298;46.050;38.164;2022-12-20T01:33:37;-2.33;75.54
75685;HTU21D;64298;46.050;38.164;2022-12-20T01:36:10;-2.37;75.60
75685;HTU21D;64298;46.050;38.164;2022-12-20T01:38:36;-2.38;75.76
75685;HTU21D;64298;46.050;38.164;2022-12-20T01:41:02;-2.41;75.83
75685;HTU21D;64298;46.050;38.164;2022-12-20T01:44:01;-2.38;75.85
75685;HTU21D;64298;46.050;38.164;2022-12-20T01:46:31;-2.37;75.79
75685;HTU21D;64298;46.050;38.164;2022-12-20T01:49:12;-2.38;75.74
75685;HTU21D;64298;46.050;38.164;2022-12-20T01:51:43;-2.39;75.88
75685;HTU21D;64298;46.050;38.164;2022-12-20T01:54:14;-2.41;75.94
75685;HTU21D;64298;46.050;38.164;2022-12-20T01:56:45;-2.41;75.84
75685;HTU21D;64298;46.050;38.164;2022-12-20T01:59:12;-2.42;75.84
75685;HTU21D;64298;46.050;38.164;2022-12-20T02:01:40;-2.44;76.02
75685;HTU21D;64298;46.050;38.164;2022-12-20T02:04:06;-2.46;76.07
75685;HTU21D;64298;46.050;38.164;2022-12-20T02:06:33;-2.48;76.19
75685;HTU21D;64298;46.050;38.164;2022-12-20T02:09:00;-2.47;76.16
75685;HTU21D;64298;46.050;38.164;2022-12-20T02:17:09;-2.47;76.12
75685;HTU21D;64298;46.050;38.164;2022-12-20T02:31:28;-2.61;76.38
75685;HTU21D;64298;46.050;38.164;2022-12-20T02:33:56;-2.62;76.36
75685;HTU21D;64298;46.050;38.164;2022-12-20T02:36:23;-2.59;76.32
75685;HTU21D;64298;46.050;38.164;2022-12-20T02:38:51;-2.59;76.19
75685;HTU21D;64298;46.050;38.164;2022-12-20T02:41:31;-2.60;76.25
75685;HTU21D;64298;46.050;38.164;2022-12-20T02:44:20;-2.60;76.31
75685;HTU21D;64298;46.050;38.164;2022-12-20T02:47:10;-2.62;76.24
75685;HTU21D;64298;46.050;38.164;2022-12-20T02:49:38;-2.64;76.21
75685;HTU21D;64298;46.050;38.164;2022-12-20T02:52:08;-2.66;76.32
75685;HTU21D;64298;46.050;38.164;2022-12-20T02:54:36;-2.67;76.38
75685;HTU21D;64298;46.050;38.164;2022-12-20T02:57:10;-2.64;76.33
75685;HTU21D;64298;46.050;38.164;2022-12-20T03:00:04;-2.63;76.29
75685;HTU21D;64298;46.050;38.164;2022-12-20T03:02:34;-2.63;76.21
75685;HTU21D;64298;46.050;38.164;2022-12-20T03:05:21;-2.64;76.21
75685;HTU21D;64298;46.050;38.164;2022-12-20T03:07:49;-2.65;76.23
75685;HTU21D;64298;46.050;38.164;2022-12-20T03:10:19;-2.65;76.37
75685;HTU21D;64298;46.050;38.164;2022-12-20T03:12:46;-2.65;76.29
75685;HTU21D;64298;46.050;38.164;2022-12-20T03:15:12;-2.65;76.28
75685;HTU21D;64298;46.050;38.164;2022-12-20T03:17:39;-2.64;76.32
75685;HTU21D;64298;46.050;38.164;2022-12-20T03:20:05;-2.65;76.42
75685;HTU21D;64298;46.050;38.164;2022-12-20T03:22:33;-2.65;76.39
75685;HTU21D;64298;46.050;38.164;2022-12-20T03:25:00;-2.68;76.44
75685;HTU21D;64298;46.050;38.164;2022-12-20T03:27:28;-2.68;76.50
75685;HTU21D;64298;46.050;38.164;2022-12-20T03:29:55;-2.75;76.55
75685;HTU21D;64298;46.050;38.164;2022-12-20T03:32:22;-2.77;76.66
75685;HTU21D;64298;46.050;38.164;2022-12-20T03:34:48;-2.80;76.81
75685;HTU21D;64298;46.050;38.164;2022-12-20T03:37:20;-2.81;76.79
75685;HTU21D;64298;46.050;38.164;2022-12-20T03:40:05;-2.82;76.82
75685;HTU21D;64298;46.050;38.164;2022-12-20T03:42:32;-2.83;76.86
75685;HTU21D;64298;46.050;38.164;2022-12-20T03:44:58;-2.82;76.76
75685;HTU21D;64298;46.050;38.164;2022-12-20T03:47:26;-2.83;76.91
75685;HTU21D;64298;46.050;38.164;2022-12-20T03:49:52;-2.83;76.84
75685;HTU21D;64298;46.050;38.164;2022-12-20T03:52:18;-2.81;76.85
75685;HTU21D;64298;46.050;38.164;2022-12-20T03:54:46;-2.80;76.85
75685;HTU21D;64298;46.050;38.164;2022-12-20T03:57:16;-2.81;76.90
75685;HTU21D;64298;46.050;38.164;2022-12-20T03:59:44;-2.84;77.08
75685;HTU21D;64298;46.050;38.164;2022-12-20T04:02:13;-2.87;77.05
75685;HTU21D;64298;46.050;38.164;2022-12-20T04:04:39;-2.86;77.07
75685;HTU21D;64298;46.050;38.164;2022-12-20T04:07:07;-2.88;76.98
75685;HTU21D;64298;46.050;38.164;2022-12-20T04:09:36;-2.89;76.94
75685;HTU21D;64298;46.050;38.164;2022-12-20T04:12:10;-2.88;77.00
75685;HTU21D;64298;46.050;38.164;2022-12-20T04:14:37;-2.88;76.96
75685;HTU21D;64298;46.050;38.164;2022-12-20T04:17:04;-2.88;76.86
75685;HTU21D;64298;46.050;38.164;2022-12-20T04:19:30;-2.89;76.82
75685;HTU21D;64298;46.050;38.164;2022-12-20T04:21:57;-2.89;76.82
75685;HTU21D;64298;46.050;38.164;2022-12-20T04:24:27;-2.88;76.83
75685;HTU21D;64298;46.050;38.164;2022-12-20T04:27:19;-2.90;76.82
75685;HTU21D;64298;46.050;38.164;2022-12-20T04:29:46;-2.89;76.88
75685;HTU21D;64298;46.050;38.164;2022-12-20T04:32:14;-2.90;76.86
75685;HTU21D;64298;46.050;38.164;2022-12-20T04:34:40;-2.93;76.86
75685;HTU21D;64298;46.050;38.164;2022-12-20T04:37:06;-2.94;76.92
75685;HTU21D;64298;46.050;38.164;2022-12-20T04:39:43;-2.92;76.89
75685;HTU21D;64298;46.050;38.164;2022-12-20T04:42:17;-2.91;76.91
75685;HTU21D;64298;46.050;38.164;2022-12-20T04:44:44;-2.91;76.98
75685;HTU21D;64298;46.050;38.164;2022-12-20T04:47:12;-2.93;77.04
75685;HTU21D;64298;46.050;38.164;2022-12-20T04:49:38;-2.95;77.05
75685;HTU21D;64298;46.050;38.164;2022-12-20T04:52:04;-2.98;77.20
75685;HTU21D;64298;46.050;38.164;2022-12-20T04:54:49;-3.01;77.13
75685;HTU21D;64298;46.050;38.164;2022-12-20T04:57:23;-3.01;77.13
75685;HTU21D;64298;46.050;38.164;2022-12-20T05:00:08;-2.98;77.05
75685;HTU21D;64298;46.050;38.164;2022-12-20T05:02:40;-3.00;77.12
75685;HTU21D;64298;46.050;38.164;2022-12-20T05:05:10;-2.98;77.05
75685;HTU21D;64298;46.050;38.164;2022-12-20T05:07:42;-2.98;76.92
75685;HTU21D;64298;46.050;38.164;2022-12-20T05:10:09;-3.00;76.99
75685;HTU21D;64298;46.050;38.164;2022-12-20T05:12:37;-3.05;77.23
75685;HTU21D;64298;46.050;38.164;2022-12-20T05:15:03;-3.05;77.33
75685;HTU21D;64298;46.050;38.164;2022-12-20T05:17:30;-3.05;77.27
75685;HTU21D;64298;46.050;38.164;2022-12-20T05:19:56;-3.03;77.29
75685;HTU21D;64298;46.050;38.164;2022-12-20T05:22:22;-2.98;77.22
75685;HTU21D;64298;46.050;38.164;2022-12-20T05:25:10;-2.96;77.18
75685;HTU21D;64298;46.050;38.164;2022-12-20T05:28:00;-2.93;77.15
75685;HTU21D;64298;46.050;38.164;2022-12-20T05:30:30;-2.92;77.27
75685;HTU21D;64298;46.050;38.164;2022-12-20T05:32:56;-2.91;77.34
75685;HTU21D;64298;46.050;38.164;2022-12-20T05:35:22;-2.92;77.25
75685;HTU21D;64298;46.050;38.164;2022-12-20T05:37:54;-2.91;77.33
75685;HTU21D;64298;46.050;38.164;2022-12-20T05:40:40;-2.89;77.32
75685;HTU21D;64298;46.050;38.164;2022-12-20T05:43:07;-2.88;77.31
75685;HTU21D;64298;46.050;38.164;2022-12-20T05:45:46;-2.84;77.33
75685;HTU21D;64298;46.050;38.164;2022-12-20T05:48:15;-2.81;77.31
75685;HTU21D;64298;46.050;38.164;2022-12-20T05:50:43;-2.79;77.31
75685;HTU21D;64298;46.050;38.164;2022-12-20T05:53:23;-2.77;77.32
75685;HTU21D;64298;46.050;38.164;2022-12-20T05:55:53;-2.75;77.29
75685;HTU21D;64298;46.050;38.164;2022-12-20T05:58:24;-2.71;77.27
75685;HTU21D;64298;46.050;38.164;2022-12-20T06:01:00;-2.67;77.31
75685;HTU21D;64298;46.050;38.164;2022-12-20T06:03:27;-2.63;77.31
75685;HTU21D;64298;46.050;38.164;2022-12-20T06:05:55;-2.64;77.34
75685;HTU21D;64298;46.050;38.164;2022-12-20T06:08:26;-2.61;77.39
75685;HTU21D;64298;46.050;38.164;2022-12-20T06:10:54;-2.58;77.37
75685;HTU21D;64298;46.050;38.164;2022-12-20T06:13:21;-2.53;77.39
75685;HTU21D;64298;46.050;38.164;2022-12-20T06:15:49;-2.49;77.36
75685;HTU21D;64298;46.050;38.164;2022-12-20T06:18:17;-2.46;77.34
75685;HTU21D;64298;46.050;38.164;2022-12-20T06:20:52;-2.38;77.39
75685;HTU21D;64298;46.050;38.164;2022-12-20T06:23:21;-2.29;77.29
75685;HTU21D;64298;46.050;38.164;2022-12-20T06:26:06;-2.17;77.14
75685;HTU21D;64298;46.050;38.164;2022-12-20T06:28:52;-2.10;77.08
75685;HTU21D;64298;46.050;38.164;2022-12-20T06:31:33;-2.06;77.08
75685;HTU21D;64298;46.050;38.164;2022-12-20T06:34:18;-1.99;77.05
75685;HTU21D;64298;46.050;38.164;2022-12-20T06:36:45;-1.95;77.02
75685;HTU21D;64298;46.050;38.164;2022-12-20T06:39:17;-1.87;76.98
75685;HTU21D;64298;46.050;38.164;2022-12-20T06:41:57;-1.84;76.91
75685;HTU21D;64298;46.050;38.164;2022-12-20T06:44:23;-1.79;76.98
75685;HTU21D;64298;46.050;38.164;2022-12-20T06:46:50;-1.74;76.99
75685;HTU21D;64298;46.050;38.164;2022-12-20T06:49:35;-1.69;76.95
75685;HTU21D;64298;46.050;38.164;2022-12-20T06:52:09;-1.68;77.09
75685;HTU21D;64298;46.050;38.164;2022-12-20T06:54:43;-1.63;77.12
75685;HTU21D;64298;46.050;38.164;2022-12-20T06:57:09;-1.61;77.15
75685;HTU21D;64298;46.050;38.164;2022-12-20T06:59:36;-1.57;77.18
75685;HTU21D;64298;46.050;38.164;2022-12-20T07:02:03;-1.49;77.13
75685;HTU21D;64298;46.050;38.164;2022-12-20T07:04:28;-1.46;77.03
75685;HTU21D;64298;46.050;38.164;2022-12-20T07:06:54;-1.44;77.05
75685;HTU21D;64298;46.050;38.164;2022-12-20T07:09:22;-1.39;77.01
75685;HTU21D;64298;46.050;38.164;2022-12-20T07:11:48;-1.32;76.95
75685;HTU21D;64298;46.050;38.164;2022-12-20T07:14:14;-1.28;76.82
75685;HTU21D;64298;46.050;38.164;2022-12-20T07:16:40;-1.25;76.86
75685;HTU21D;64298;46.050;38.164;2022-12-20T07:19:12;-1.19;76.79
75685;HTU21D;64298;46.050;38.164;2022-12-20T07:21:38;-1.14;76.60
75685;HTU21D;64298;46.050;38.164;2022-12-20T07:24:05;-1.10;76.55
75685;HTU21D;64298;46.050;38.164;2022-12-20T07:26:31;-1.05;76.44
75685;HTU21D;64298;46.050;38.164;2022-12-20T07:28:57;-0.97;76.38
75685;HTU21D;64298;46.050;38.164;2022-12-20T07:31:23;-0.85;76.16
75685;HTU21D;64298;46.050;38.164;2022-12-20T07:33:49;-0.75;76.04
75685;HTU21D;64298;46.050;38.164;2022-12-20T07:36:15;-0.65;75.89
75685;HTU21D;64298;46.050;38.164;2022-12-20T07:38:41;-0.55;75.63
75685;HTU21D;64298;46.050;38.164;2022-12-20T07:41:25;-0.46;75.39
75685;HTU21D;64298;46.050;38.164;2022-12-20T07:43:51;-0.37;75.29
75685;HTU21D;64298;46.050;38.164;2022-12-20T07:46:18;-0.29;75.13
75685;HTU21D;64298;46.050;38.164;2022-12-20T07:48:44;-0.26;74.92
75685;HTU21D;64298;46.050;38.164;2022-12-20T07:51:22;-0.27;74.74
75685;HTU21D;64298;46.050;38.164;2022-12-20T07:53:57;-0.26;74.91
75685;HTU21D;64298;46.050;38.164;2022-12-20T07:56:24;-0.13;74.96
75685;HTU21D;64298;46.050;38.164;2022-12-20T07:58:53;-0.03;74.70
75685;HTU21D;64298;46.050;38.164;2022-12-20T08:01:24;0.08;74.57
75685;HTU21D;64298;46.050;38.164;2022-12-20T08:03:57;0.21;74.29
75685;HTU21D;64298;46.050;38.164;2022-12-20T08:06:24;0.31;73.96
75685;HTU21D;64298;46.050;38.164;2022-12-20T08:08:53;0.33;73.80
75685;HTU21D;64298;46.050;38.164;2022-12-20T08:11:21;0.38;73.81
75685;HTU21D;64298;46.050;38.164;2022-12-20T08:13:49;0.44;73.73
75685;HTU21D;64298;46.050;38.164;2022-12-20T08:16:16;0.51;73.61
75685;HTU21D;64298;46.050;38.164;2022-12-20T08:18:42;0.60;73.61
75685;HTU21D;64298;46.050;38.164;2022-12-20T08:21:08;0.73;73.31
75685;HTU21D;64298;46.050;38.164;2022-12-20T08:23:35;0.79;73.11
75685;HTU21D;64298;46.050;38.164;2022-12-20T08:26:01;0.84;73.06
75685;HTU21D;64298;46.050;38.164;2022-12-20T08:28:27;0.96;73.02
75685;HTU21D;64298;46.050;38.164;2022-12-20T08:31:02;1.03;72.70
75685;HTU21D;64298;46.050;38.164;2022-12-20T08:33:29;1.07;72.66
75685;HTU21D;64298;46.050;38.164;2022-12-20T08:35:58;1.10;72.48
75685;HTU21D;64298;46.050;38.164;2022-12-20T08:38:26;1.19;72.45
75685;HTU21D;64298;46.050;38.164;2022-12-20T08:40:53;1.23;72.21
75685;HTU21D;64298;46.050;38.164;2022-12-20T08:43:19;1.29;72.30
75685;HTU21D;64298;46.050;38.164;2022-12-20T08:45:50;1.39;72.21
75685;HTU21D;64298;46.050;38.164;2022-12-20T08:48:16;1.53;72.03
75685;HTU21D;64298;46.050;38.164;2022-12-20T08:50:42;1.64;71.90
75685;HTU21D;64298;46.050;38.164;2022-12-20T08:53:08;1.72;71.23
75685;HTU21D;64298;46.050;38.164;2022-12-20T08:55:34;1.73;70.55
75685;HTU21D;64298;46.050;38.164;2022-12-20T08:57:59;1.78;70.76
75685;HTU21D;64298;46.050;38.164;2022-12-20T09:00:25;1.84;70.79
75685;HTU21D;64298;46.050;38.164;2022-12-20T09:02:53;1.91;70.44
75685;HTU21D;64298;46.050;38.164;2022-12-20T09:05:19;1.87;69.95
75685;HTU21D;64298;46.050;38.164;2022-12-20T09:07:45;1.86;70.64
75685;HTU21D;64298;46.050;38.164;2022-12-20T09:10:11;1.98;70.61
75685;HTU21D;64298;46.050;38.164;2022-12-20T09:12:38;2.10;70.53
75685;HTU21D;64298;46.050;38.164;2022-12-20T09:15:04;2.21;69.82
75685;HTU21D;64298;46.050;38.164;2022-12-20T09:17:31;2.25;69.71
75685;HTU21D;64298;46.050;38.164;2022-12-20T09:19:57;2.27;69.00
75685;HTU21D;64298;46.050;38.164;2022-12-20T09:22:23;2.22;69.52
75685;HTU21D;64298;46.050;38.164;2022-12-20T09:24:48;2.21;69.59
75685;HTU21D;64298;46.050;38.164;2022-12-20T09:27:14;2.28;69.13
75685;HTU21D;64298;46.050;38.164;2022-12-20T09:29:40;2.37;69.65
75685;HTU21D;64298;46.050;38.164;2022-12-20T09:32:06;2.54;69.20
75685;HTU21D;64298;46.050;38.164;2022-12-20T09:34:33;2.64;68.88
75685;HTU21D;64298;46.050;38.164;2022-12-20T09:36:59;2.68;68.90
75685;HTU21D;64298;46.050;38.164;2022-12-20T09:39:25;2.76;68.85
75685;HTU21D;64298;46.050;38.164;2022-12-20T09:41:51;2.82;67.73
75685;HTU21D;64298;46.050;38.164;2022-12-20T09:44:32;2.81;68.19
75685;HTU21D;64298;46.050;38.164;2022-12-20T09:47:18;2.80;68.00
75685;HTU21D;64298;46.050;38.164;2022-12-20T09:49:48;2.81;67.89
75685;HTU21D;64298;46.050;38.164;2022-12-20T10:00:22;2.90;67.57
75685;HTU21D;64298;46.050;38.164;2022-12-20T10:02:49;2.90;66.38
75685;HTU21D;64298;46.050;38.164;2022-12-20T10:11:19;2.82;67.23
75685;HTU21D;64298;46.050;38.164;2022-12-20T10:14:11;2.93;67.44
75685;HTU21D;64298;46.050;38.164;2022-12-20T10:16:44;3.01;66.68
75685;HTU21D;64298;46.050;38.164;2022-12-20T10:19:29;3.01;66.85
75685;HTU21D;64298;46.050;38.164;2022-12-20T10:22:10;3.04;66.59
75685;HTU21D;64298;46.050;38.164;2022-12-20T10:24:40;3.06;66.70
75685;HTU21D;64298;46.050;38.164;2022-12-20T10:29:43;3.03;66.94
75685;HTU21D;64298;46.050;38.164;2022-12-20T10:32:16;3.13;66.68
75685;HTU21D;64298;46.050;38.164;2022-12-20T10:38:13;3.21;66.42
75685;HTU21D;64298;46.050;38.164;2022-12-20T10:43:23;3.03;64.84
75685;HTU21D;64298;46.050;38.164;2022-12-20T10:46:06;2.81;65.50
75685;HTU21D;64298;46.050;38.164;2022-12-20T10:48:40;2.70;66.36
75685;HTU21D;64298;46.050;38.164;2022-12-20T10:54:10;2.90;66.79
75685;HTU21D;64298;46.050;38.164;2022-12-20T10:56:54;3.02;66.51
75685;HTU21D;64298;46.050;38.164;2022-12-20T10:59:35;3.04;66.35
75685;HTU21D;64298;46.050;38.164;2022-12-20T11:07:26;3.19;66.27
75685;HTU21D;64298;46.050;38.164;2022-12-20T11:13:10;3.24;65.70
75685;HTU21D;64298;46.050;38.164;2022-12-20T11:15:47;3.27;65.71
75685;HTU21D;64298;46.050;38.164;2022-12-20T11:20:59;3.36;65.72
75685;HTU21D;64298;46.050;38.164;2022-12-20T11:23:47;3.39;65.52
75685;HTU21D;64298;46.050;38.164;2022-12-20T11:37:24;3.06;64.95
75685;HTU21D;64298;46.050;38.164;2022-12-20T11:40:10;2.99;65.56
75685;HTU21D;64298;46.050;38.164;2022-12-20T11:43:15;3.04;65.85
75685;HTU21D;64298;46.050;38.164;2022-12-20T11:49:23;2.97;66.01
75685;HTU21D;64298;46.050;38.164;2022-12-20T11:52:02;2.95;66.07
75685;HTU21D;64298;46.050;38.164;2022-12-20T11:54:55;2.90;66.22
75685;HTU21D;64298;46.050;38.164;2022-12-20T11:57:28;2.91;66.43
75685;HTU21D;64298;46.050;38.164;2022-12-20T11:59:59;2.87;66.49
75685;HTU21D;64298;46.050;38.164;2022-12-20T12:02:43;2.84;66.56
75685;HTU21D;64298;46.050;38.164;2022-12-20T12:05:24;2.78;66.66
75685;HTU21D;64298;46.050;38.164;2022-12-20T12:07:56;2.79;66.78
75685;HTU21D;64298;46.050;38.164;2022-12-20T12:10:29;2.78;66.89
75685;HTU21D;64298;46.050;38.164;2022-12-20T12:15:47;2.78;66.95
75685;HTU21D;64298;46.050;38.164;2022-12-20T12:18:18;2.72;66.83
75685;HTU21D;64298;46.050;38.164;2022-12-20T12:21:10;2.68;67.01
75685;HTU21D;64298;46.050;38.164;2022-12-20T12:24:00;2.65;67.00
75685;HTU21D;64298;46.050;38.164;2022-12-20T12:26:38;2.57;66.89
75685;HTU21D;64298;46.050;38.164;2022-12-20T12:29:29;2.45;67.05
75685;HTU21D;64298;46.050;38.164;2022-12-20T12:32:09;2.29;66.99
75685;HTU21D;64298;46.050;38.164;2022-12-20T12:37:35;2.17;67.66
75685;HTU21D;64298;46.050;38.164;2022-12-20T12:40:15;2.13;67.82
75685;HTU21D;64298;46.050;38.164;2022-12-20T12:46:00;2.03;68.19
75685;HTU21D;64298;46.050;38.164;2022-12-20T12:48:47;2.00;68.16
75685;HTU21D;64298;46.050;38.164;2022-12-20T12:51:22;1.97;68.27
75685;HTU21D;64298;46.050;38.164;2022-12-20T12:53:51;1.95;68.39
75685;HTU21D;64298;46.050;38.164;2022-12-20T13:04:50;1.93;68.66
75685;HTU21D;64298;46.050;38.164;2022-12-20T13:18:16;1.81;69.12
75685;HTU21D;64298;46.050;38.164;2022-12-20T13:20:42;1.80;69.19
75685;HTU21D;64298;46.050;38.164;2022-12-20T13:25:45;1.78;69.39
75685;HTU21D;64298;46.050;38.164;2022-12-20T13:30:44;1.73;69.55
75685;HTU21D;64298;46.050;38.164;2022-12-20T13:33:23;1.71;69.66
75685;HTU21D;64298;46.050;38.164;2022-12-20T13:43:58;1.70;69.89
75685;HTU21D;64298;46.050;38.164;2022-12-20T13:46:52;1.65;70.02
75685;HTU21D;64298;46.050;38.164;2022-12-20T13:49:37;1.61;70.20
75685;HTU21D;64298;46.050;38.164;2022-12-20T13:55:16;1.53;70.31
75685;HTU21D;64298;46.050;38.164;2022-12-20T13:57:47;1.53;70.37
75685;HTU21D;64298;46.050;38.164;2022-12-20T14:00:25;1.52;70.41
75685;HTU21D;64298;46.050;38.164;2022-12-20T14:02:52;1.52;70.44
75685;HTU21D;64298;46.050;38.164;2022-12-20T14:05:22;1.50;70.46
75685;HTU21D;64298;46.050;38.164;2022-12-20T14:10:43;1.51;70.49
75685;HTU21D;64298;46.050;38.164;2022-12-20T14:15:43;1.42;70.64
75685;HTU21D;64298;46.050;38.164;2022-12-20T14:18:18;1.35;70.71
75685;HTU21D;64298;46.050;38.164;2022-12-20T14:20:53;1.31;70.82
75685;HTU21D;64298;46.050;38.164;2022-12-20T14:23:43;1.29;70.86
75685;HTU21D;64298;46.050;38.164;2022-12-20T14:26:16;1.28;70.85
75685;HTU21D;64298;46.050;38.164;2022-12-20T14:28:48;1.27;70.86
75685;HTU21D;64298;46.050;38.164;2022-12-20T14:36:45;1.24;70.89
75685;HTU21D;64298;46.050;38.164;2022-12-20T14:39:54;1.22;70.99
75685;HTU21D;64298;46.050;38.164;2022-12-20T14:42:20;1.18;70.99
75685;HTU21D;64298;46.050;38.164;2022-12-20T14:44:46;1.10;71.11
75685;HTU21D;64298;46.050;38.164;2022-12-20T14:47:26;1.12;71.24
75685;HTU21D;64298;46.050;38.164;2022-12-20T14:50:02;1.09;71.29
75685;HTU21D;64298;46.050;38.164;2022-12-20T14:55:18;1.04;71.41
75685;HTU21D;64298;46.050;38.164;2022-12-20T14:57:55;1.01;71.42
75685;HTU21D;64298;46.050;38.164;2022-12-20T15:13:26;0.79;71.68
75685;HTU21D;64298;46.050;38.164;2022-12-20T15:15:53;0.75;71.76
75685;HTU21D;64298;46.050;38.164;2022-12-20T15:18:20;0.72;71.80
75685;HTU21D;64298;46.050;38.164;2022-12-20T15:20:54;0.68;71.87
75685;HTU21D;64298;46.050;38.164;2022-12-20T15:23:23;0.66;71.98
75685;HTU21D;64298;46.050;38.164;2022-12-20T15:25:49;0.59;72.02
75685;HTU21D;64298;46.050;38.164;2022-12-20T15:28:20;0.52;72.12
75685;HTU21D;64298;46.050;38.164;2022-12-20T15:31:05;0.49;72.12
75685;HTU21D;64298;46.050;38.164;2022-12-20T15:33:31;0.47;72.19
75685;HTU21D;64298;46.050;38.164;2022-12-20T15:35:58;0.45;72.18
75685;HTU21D;64298;46.050;38.164;2022-12-20T15:38:25;0.43;72.25
75685;HTU21D;64298;46.050;38.164;2022-12-20T15:40:55;0.40;72.35
75685;HTU21D;64298;46.050;38.164;2022-12-20T15:43:25;0.36;72.38
75685;HTU21D;64298;46.050;38.164;2022-12-20T15:45:52;0.32;72.40
75685;HTU21D;64298;46.050;38.164;2022-12-20T15:48:21;0.29;72.50
75685;HTU21D;64298;46.050;38.164;2022-12-20T15:50:53;0.24;72.60
75685;HTU21D;64298;46.050;38.164;2022-12-20T15:53:38;0.22;72.73
75685;HTU21D;64298;46.050;38.164;2022-12-20T15:56:04;0.23;72.76
75685;HTU21D;64298;46.050;38.164;2022-12-20T15:58:30;0.25;72.80
75685;HTU21D;64298;46.050;38.164;2022-12-20T16:00:59;0.28;72.78
75685;HTU21D;64298;46.050;38.164;2022-12-20T16:03:29;0.25;72.84
75685;HTU21D;64298;46.050;38.164;2022-12-20T16:05:56;0.23;72.93
75685;HTU21D;64298;46.050;38.164;2022-12-20T16:08:23;0.19;73.01
75685;HTU21D;64298;46.050;38.164;2022-12-20T16:10:50;0.14;73.03
75685;HTU21D;64298;46.050;38.164;2022-12-20T16:13:24;0.15;73.04
75685;HTU21D;64298;46.050;38.164;2022-12-20T16:16:16;0.14;73.12
75685;HTU21D;64298;46.050;38.164;2022-12-20T16:18:43;0.06;73.25
75685;HTU21D;64298;46.050;38.164;2022-12-20T16:21:17;0.02;73.34
75685;HTU21D;64298;46.050;38.164;2022-12-20T16:23:44;-0.01;73.46
75685;HTU21D;64298;46.050;38.164;2022-12-20T16:26:14;-0.05;73.67
75685;HTU21D;64298;46.050;38.164;2022-12-20T16:28:41;-0.09;73.91
75685;HTU21D;64298;46.050;38.164;2022-12-20T16:31:34;-0.10;73.99
75685;HTU21D;64298;46.050;38.164;2022-12-20T16:34:08;-0.13;74.10
75685;HTU21D;64298;46.050;38.164;2022-12-20T16:36:35;-0.17;74.31
75685;HTU21D;64298;46.050;38.164;2022-12-20T16:39:01;-0.21;74.45
75685;HTU21D;64298;46.050;38.164;2022-12-20T16:41:29;-0.21;74.36
75685;HTU21D;64298;46.050;38.164;2022-12-20T16:43:59;-0.24;74.43
75685;HTU21D;64298;46.050;38.164;2022-12-20T16:46:27;-0.26;74.65
75685;HTU21D;64298;46.050;38.164;2022-12-20T16:48:55;-0.30;74.84
75685;HTU21D;64298;46.050;38.164;2022-12-20T16:51:39;-0.36;74.94
75685;HTU21D;64298;46.050;38.164;2022-12-20T16:54:19;-0.38;74.90
75685;HTU21D;64298;46.050;38.164;2022-12-20T16:56:46;-0.39;74.87
75685;HTU21D;64298;46.050;38.164;2022-12-20T16:59:12;-0.38;74.92
75685;HTU21D;64298;46.050;38.164;2022-12-20T17:01:39;-0.37;74.83
75685;HTU21D;64298;46.050;38.164;2022-12-20T17:04:14;-0.37;74.80
75685;HTU21D;64298;46.050;38.164;2022-12-20T17:06:41;-0.35;74.80
75685;HTU21D;64298;46.050;38.164;2022-12-20T17:09:08;-0.32;74.76
75685;HTU21D;64298;46.050;38.164;2022-12-20T17:11:36;-0.31;74.80
75685;HTU21D;64298;46.050;38.164;2022-12-20T17:14:03;-0.31;74.81
75685;HTU21D;64298;46.050;38.164;2022-12-20T17:16:30;-0.30;75.09
75685;HTU21D;64298;46.050;38.164;2022-12-20T17:18:58;-0.34;74.99
75685;HTU21D;64298;46.050;38.164;2022-12-20T17:21:37;-0.37;75.07
75685;HTU21D;64298;46.050;38.164;2022-12-20T17:24:23;-0.37;75.12
75685;HTU21D;64298;46.050;38.164;2022-12-20T17:26:50;-0.37;75.18
75685;HTU21D;64298;46.050;38.164;2022-12-20T17:29:16;-0.37;75.07
75685;HTU21D;64298;46.050;38.164;2022-12-20T17:31:46;-0.36;75.14
75685;HTU21D;64298;46.050;38.164;2022-12-20T17:34:27;-0.36;75.24
75685;HTU21D;64298;46.050;38.164;2022-12-20T17:36:56;-0.35;75.21
75685;HTU21D;64298;46.050;38.164;2022-12-20T17:39:24;-0.34;75.20
75685;HTU21D;64298;46.050;38.164;2022-12-20T17:41:51;-0.34;75.44
75685;HTU21D;64298;46.050;38.164;2022-12-20T17:44:26;-0.31;75.38
75685;HTU21D;64298;46.050;38.164;2022-12-20T17:46:57;-0.29;75.29
75685;HTU21D;64298;46.050;38.164;2022-12-20T17:49:24;-0.29;75.34
75685;HTU21D;64298;46.050;38.164;2022-12-20T17:51:50;-0.28;75.42
75685;HTU21D;64298;46.050;38.164;2022-12-20T17:54:23;-0.29;75.33